createdAt,value
2023-03-13T00:01:51.810Z,9.12
2023-03-13T00:05:14.140Z,9.11
2023-03-13T00:08:36.325Z,9.11
2023-03-13T00:11:58.154Z,9.09
2023-03-13T00:15:19.838Z,9.08
2023-03-13T00:18:47.217Z,9.08
2023-03-13T00:22:08.997Z,9.07
2023-03-13T00:25:31.172Z,9.07
2023-03-13T00:28:53.659Z,9.07
2023-03-13T00:32:15.767Z,9.06
2023-03-13T00:35:37.811Z,9.06
2023-03-13T00:39:01.421Z,9.06
2023-03-13T00:42:23.179Z,9.06
2023-03-13T00:45:44.928Z,9.07
2023-03-13T00:49:07.059Z,9.08
2023-03-13T00:52:28.710Z,9.08
2023-03-13T00:55:53.530Z,9.09
2023-03-13T00:59:15.794Z,9.09
2023-03-13T01:02:42.491Z,9.10
2023-03-13T01:06:06.929Z,9.11
2023-03-13T01:09:28.665Z,9.12
2023-03-13T01:12:50.400Z,9.13
2023-03-13T01:16:18.627Z,9.14
2023-03-13T01:19:40.382Z,9.16
2023-03-13T01:23:03.511Z,9.16
2023-03-13T01:26:26.180Z,9.18
2023-03-13T01:29:48.777Z,9.19
2023-03-13T01:33:10.478Z,9.20
2023-03-13T01:36:32.344Z,9.20
2023-03-13T01:39:54.136Z,9.21
2023-03-13T01:43:27.928Z,9.21
2023-03-13T01:46:52.635Z,9.20
2023-03-13T01:50:20.291Z,9.20
2023-03-13T01:54:18.639Z,9.20
2023-03-13T01:57:43.344Z,9.19
2023-03-13T02:01:05.974Z,9.18
2023-03-13T02:04:31.505Z,9.18
2023-03-13T02:08:24.270Z,9.18
2023-03-13T02:12:05.181Z,9.18
2023-03-13T02:15:27.790Z,9.15
2023-03-13T02:18:49.665Z,9.13
2023-03-13T02:22:29.909Z,9.11
2023-03-13T02:25:53.551Z,9.10
2023-03-13T02:29:18.736Z,9.09
2023-03-13T02:32:41.184Z,9.08
2023-03-13T02:36:03.556Z,9.06
2023-03-13T02:39:26.052Z,9.06
2023-03-13T02:42:48.800Z,9.06
2023-03-13T02:46:17.525Z,9.07
2023-03-13T02:49:40.985Z,9.07
2023-03-13T02:53:05.890Z,9.08
2023-03-13T02:56:30.073Z,9.06
2023-03-13T02:59:51.931Z,9.05
2023-03-13T03:03:13.945Z,9.05
2023-03-13T03:06:35.621Z,9.06
2023-03-13T03:09:58.187Z,9.06
2023-03-13T03:13:19.891Z,9.06
2023-03-13T03:16:41.837Z,9.05
2023-03-13T03:20:07.964Z,9.06
2023-03-13T03:23:29.679Z,9.05
2023-03-13T03:26:51.433Z,9.06
2023-03-13T03:30:19.260Z,9.05
2023-03-13T03:33:42.116Z,9.05
2023-03-13T03:37:05.660Z,9.05
2023-03-13T03:40:28.231Z,9.05
2023-03-13T03:43:50.452Z,9.04
2023-03-13T03:47:14.841Z,9.05
2023-03-13T03:50:39.559Z,9.04
2023-03-13T03:54:01.400Z,9.03
2023-03-13T03:57:25.018Z,9.02
2023-03-13T04:00:47.802Z,8.99
2023-03-13T04:04:09.711Z,8.93
2023-03-13T04:07:33.415Z,8.90
2023-03-13T04:10:55.494Z,8.91
2023-03-13T04:14:18.643Z,8.92
2023-03-13T04:17:40.572Z,8.92
2023-03-13T04:21:06.028Z,8.92
2023-03-13T04:24:44.639Z,8.93
2023-03-13T04:28:06.361Z,8.93
2023-03-13T04:31:33.823Z,8.93
2023-03-13T04:35:11.270Z,8.93
2023-03-13T04:38:51.593Z,8.93
2023-03-13T04:42:32.269Z,8.93
2023-03-13T04:46:05.939Z,8.92
2023-03-13T04:49:53.636Z,8.90
2023-03-13T04:53:39.332Z,8.90
2023-03-13T04:57:13.847Z,8.90
2023-03-13T05:00:57.086Z,8.90
2023-03-13T05:04:36.830Z,8.89
2023-03-13T05:08:21.781Z,8.90
2023-03-13T05:11:58.274Z,8.91
2023-03-13T05:15:38.832Z,8.91
2023-03-13T05:19:26.867Z,8.93
2023-03-13T05:23:11.621Z,8.93
2023-03-13T05:26:56.087Z,8.94
2023-03-13T05:30:26.926Z,8.95
2023-03-13T05:34:07.448Z,8.95
2023-03-13T05:37:47.479Z,8.96
2023-03-13T05:41:44.656Z,8.98
2023-03-13T05:45:12.734Z,9.00
2023-03-13T05:48:58.414Z,9.03
2023-03-13T05:52:39.741Z,9.03
2023-03-13T05:56:01.624Z,9.04
2023-03-13T05:59:41.971Z,9.04
2023-03-13T06:03:22.395Z,9.02
2023-03-13T06:06:46.750Z,9.03
2023-03-13T06:10:11.185Z,9.04
2023-03-13T06:13:34.384Z,9.05
2023-03-13T06:17:02.812Z,9.08
2023-03-13T06:20:24.549Z,9.09
2023-03-13T06:23:48.992Z,9.12
2023-03-13T06:27:11.219Z,9.14
2023-03-13T06:30:32.931Z,9.15
2023-03-13T06:33:55.188Z,9.17
2023-03-13T06:37:16.900Z,9.18
2023-03-13T06:40:38.594Z,9.19
2023-03-13T06:44:00.291Z,9.22
2023-03-13T06:47:21.990Z,9.24
2023-03-13T06:50:44.114Z,9.26
2023-03-13T06:54:06.026Z,9.28
2023-03-13T06:57:27.882Z,9.28
2023-03-13T07:00:49.584Z,9.27
2023-03-13T07:04:13.047Z,9.29
2023-03-13T07:07:37.283Z,9.33
2023-03-13T07:11:01.213Z,9.37
2023-03-13T07:14:22.864Z,9.43
2023-03-13T07:17:44.721Z,9.49
2023-03-13T07:21:06.526Z,9.52
2023-03-13T07:24:28.252Z,9.54
2023-03-13T07:27:52.538Z,9.57
2023-03-13T07:31:22.027Z,9.60
2023-03-13T07:34:46.862Z,9.63
2023-03-13T07:38:08.538Z,9.66
2023-03-13T07:41:30.257Z,9.68
2023-03-13T07:44:53.341Z,9.76
2023-03-13T07:48:14.974Z,9.87
2023-03-13T07:51:43.661Z,9.96
2023-03-13T07:55:06.551Z,10.02
2023-03-13T07:58:32.412Z,10.08
2023-03-13T08:01:54.384Z,10.16
2023-03-13T08:05:16.195Z,10.26
2023-03-13T08:08:39.202Z,10.36
2023-03-13T08:12:00.857Z,10.46
2023-03-13T08:15:26.144Z,10.55
2023-03-13T08:18:50.496Z,10.63
2023-03-13T08:22:12.210Z,10.70
2023-03-13T08:25:33.942Z,10.75
2023-03-13T08:29:06.930Z,10.79
2023-03-13T08:32:28.943Z,10.82
2023-03-13T08:35:50.754Z,10.84
2023-03-13T08:39:14.591Z,10.88
2023-03-13T08:42:37.565Z,10.93
2023-03-13T08:45:59.340Z,10.96
2023-03-13T08:49:21.087Z,10.99
2023-03-13T08:52:44.790Z,11.04
2023-03-13T08:56:09.717Z,11.08
2023-03-13T08:59:31.463Z,11.22
2023-03-13T09:02:53.217Z,11.51
2023-03-13T09:06:15.061Z,12.05
2023-03-13T09:09:36.999Z,12.48
2023-03-13T09:12:58.827Z,12.81
2023-03-13T09:16:22.713Z,13.18
2023-03-13T09:19:59.181Z,13.59
2023-03-13T09:23:22.348Z,13.84
2023-03-13T09:26:58.557Z,14.10
2023-03-13T09:30:22.487Z,14.43
2023-03-13T09:33:45.234Z,14.63
2023-03-13T09:37:07.268Z,14.63
2023-03-13T09:40:29.073Z,14.71
2023-03-13T09:44:13.141Z,14.77
2023-03-13T09:47:51.023Z,14.99
2023-03-13T09:51:21.923Z,14.98
2023-03-13T09:54:59.746Z,14.70
2023-03-13T09:58:24.604Z,14.50
2023-03-13T10:01:47.835Z,14.52
2023-03-13T10:05:09.803Z,14.54
2023-03-13T10:08:33.819Z,14.46
2023-03-13T10:12:18.991Z,14.42
2023-03-13T10:15:56.139Z,14.39
2023-03-13T10:19:22.287Z,14.36
2023-03-13T10:22:46.387Z,14.26
2023-03-13T10:26:17.854Z,14.14
2023-03-13T10:29:40.147Z,14.04
2023-03-13T10:33:17.050Z,13.92
2023-03-13T10:36:50.135Z,13.90
2023-03-13T10:40:25.470Z,13.77
2023-03-13T10:43:52.800Z,13.67
2023-03-13T10:47:15.157Z,13.56
2023-03-13T10:50:37.146Z,13.57
2023-03-13T10:53:58.863Z,13.50
2023-03-13T10:57:36.452Z,13.44
2023-03-13T11:01:17.188Z,13.34
2023-03-13T11:04:39.289Z,13.32
2023-03-13T11:08:22.731Z,13.38
2023-03-13T11:12:10.470Z,13.44
2023-03-13T11:15:46.550Z,13.47
2023-03-13T11:19:29.961Z,13.59
2023-03-13T11:23:00.438Z,13.86
2023-03-13T11:27:05.136Z,14.01
2023-03-13T11:34:46.408Z,14.22
2023-03-13T11:38:22.238Z,14.42
2023-03-13T11:41:44.003Z,14.62
2023-03-13T11:45:14.423Z,14.87
2023-03-13T11:48:51.821Z,15.13
2023-03-13T11:52:24.768Z,15.40
2023-03-13T11:55:51.897Z,15.46
2023-03-13T11:59:22.250Z,15.46
2023-03-13T12:03:04.956Z,15.29
2023-03-13T12:06:31.883Z,15.16
2023-03-13T12:10:00.561Z,15.00
2023-03-13T12:13:35.951Z,14.86
2023-03-13T12:17:01.380Z,14.82
2023-03-13T12:20:27.491Z,14.72
2023-03-13T12:23:56.120Z,14.58
2023-03-13T12:27:51.903Z,14.51
2023-03-13T12:31:37.116Z,14.47
2023-03-13T12:35:20.438Z,14.41
2023-03-13T12:38:58.625Z,14.34
2023-03-13T12:42:40.096Z,14.27
2023-03-13T12:46:01.932Z,14.20
2023-03-13T12:49:32.603Z,14.16
2023-03-13T12:53:28.064Z,14.17
2023-03-13T12:56:56.025Z,14.10
2023-03-13T13:00:22.116Z,14.02
2023-03-13T13:03:57.514Z,13.94
2023-03-13T13:07:29.618Z,13.82
2023-03-13T13:10:51.326Z,13.73
2023-03-13T13:14:19.246Z,13.62
2023-03-13T13:18:14.761Z,13.54
2023-03-13T13:21:38.281Z,13.46
2023-03-13T13:25:06.195Z,13.41
2023-03-13T13:28:37.497Z,13.32
2023-03-13T13:32:01.629Z,13.22
2023-03-13T13:35:34.830Z,13.14
2023-03-13T13:38:59.343Z,13.06
2023-03-13T13:42:33.031Z,12.94
2023-03-13T13:46:16.350Z,12.84
2023-03-13T13:49:53.096Z,12.72
2023-03-13T13:53:31.542Z,12.66
2023-03-13T13:57:02.687Z,12.60
2023-03-13T14:00:29.733Z,12.58
2023-03-13T14:03:54.842Z,12.60
2023-03-13T14:07:32.970Z,12.53
2023-03-13T14:11:05.131Z,12.45
2023-03-13T14:14:26.910Z,12.41
2023-03-13T14:18:00.608Z,12.37
2023-03-13T14:21:25.072Z,12.33
2023-03-13T14:24:57.704Z,12.31
2023-03-13T14:28:25.481Z,12.25
2023-03-13T14:31:54.894Z,12.20
2023-03-13T14:35:22.045Z,12.14
2023-03-13T14:39:01.586Z,12.08
2023-03-13T14:42:23.503Z,12.01
2023-03-13T14:45:45.697Z,11.94
2023-03-13T14:49:14.990Z,11.94
2023-03-13T14:52:39.946Z,11.90
2023-03-13T14:56:19.168Z,11.87
2023-03-13T14:59:43.928Z,11.83
2023-03-13T15:03:19.073Z,11.82
2023-03-13T15:06:41.006Z,11.90
2023-03-13T15:10:17.444Z,11.91
2023-03-13T15:13:41.970Z,11.96
2023-03-13T15:17:04.476Z,11.97
2023-03-13T15:20:26.168Z,11.99
2023-03-13T15:23:59.184Z,12.00
2023-03-13T15:27:23.643Z,12.00
2023-03-13T15:30:47.397Z,11.98
2023-03-13T15:34:13.309Z,11.96
2023-03-13T15:37:37.116Z,11.90
2023-03-13T15:40:58.944Z,11.87
2023-03-13T15:44:20.670Z,11.89
2023-03-13T15:47:42.435Z,11.88
2023-03-13T15:54:40.274Z,11.89
2023-03-13T15:58:03.032Z,12.08
2023-03-13T16:01:25.107Z,12.29
2023-03-13T16:04:47.247Z,12.45
2023-03-13T16:08:36.803Z,12.61
2023-03-13T16:11:59.006Z,12.78
2023-03-13T16:15:21.451Z,12.89
2023-03-13T16:18:43.217Z,12.97
2023-03-13T16:22:05.091Z,13.04
2023-03-13T16:25:26.955Z,13.11
2023-03-13T16:28:49.285Z,13.16
2023-03-13T16:32:15.791Z,13.20
2023-03-13T16:35:38.600Z,13.24
2023-03-13T16:39:05.810Z,13.28
2023-03-13T16:42:27.576Z,13.30
2023-03-13T16:45:49.379Z,13.33
2023-03-13T16:49:14.937Z,13.35
2023-03-13T16:52:37.182Z,13.36
2023-03-13T16:55:59.332Z,13.38
2023-03-13T16:59:23.326Z,13.39
2023-03-13T17:02:45.814Z,13.40
2023-03-13T17:06:13.990Z,13.42
2023-03-13T17:09:35.802Z,13.42
2023-03-13T17:12:57.792Z,13.43
2023-03-13T17:16:25.041Z,13.45
2023-03-13T17:19:48.223Z,13.45
2023-03-13T17:23:10.307Z,13.45
2023-03-13T17:26:37.131Z,13.46
2023-03-13T17:29:59.133Z,13.48
2023-03-13T17:33:21.138Z,13.48
2023-03-13T17:36:43.669Z,13.49
2023-03-13T17:40:16.164Z,13.50
2023-03-13T17:43:40.808Z,13.51
2023-03-13T17:47:02.720Z,13.52
2023-03-13T17:50:27.338Z,13.53
2023-03-13T17:53:50.441Z,13.54
2023-03-13T17:57:15.999Z,13.55
2023-03-13T18:00:38.036Z,13.56
2023-03-13T18:04:00.751Z,13.57
2023-03-13T18:07:27.807Z,13.57
2023-03-13T18:10:49.654Z,13.59
2023-03-13T18:14:11.905Z,13.59
2023-03-13T18:17:33.813Z,13.61
2023-03-13T18:20:55.556Z,13.62
2023-03-13T18:24:18.054Z,13.64
2023-03-13T18:27:40.302Z,13.65
2023-03-13T18:31:02.238Z,13.66
2023-03-13T18:34:25.091Z,13.67
2023-03-13T18:37:47.882Z,13.68
2023-03-13T18:41:11.990Z,13.69
2023-03-13T18:44:34.231Z,13.70
2023-03-13T18:47:56.336Z,13.71
2023-03-13T18:51:19.637Z,13.72
2023-03-13T18:54:41.673Z,13.73
2023-03-13T18:58:03.452Z,13.74
2023-03-13T19:01:29.574Z,13.75
2023-03-13T19:04:52.033Z,13.76
2023-03-13T19:08:14.016Z,13.77
2023-03-13T19:11:35.848Z,13.77
2023-03-13T19:14:57.835Z,13.78
2023-03-13T19:18:19.662Z,13.76
2023-03-13T19:21:41.548Z,13.77
2023-03-13T19:25:04.115Z,13.79
2023-03-13T19:28:26.000Z,13.81
2023-03-13T19:31:47.831Z,13.82
2023-03-13T19:35:09.851Z,13.83
2023-03-13T19:38:31.632Z,13.84
2023-03-13T19:41:53.957Z,13.84
2023-03-13T19:45:20.533Z,13.84
2023-03-13T19:48:42.386Z,13.85
2023-03-13T19:52:04.264Z,13.85
2023-03-13T19:55:26.155Z,13.85
2023-03-13T19:58:50.015Z,13.85
2023-03-13T20:02:11.963Z,13.85
2023-03-13T20:05:33.814Z,13.85
2023-03-13T20:08:57.187Z,13.86
2023-03-13T20:12:19.261Z,13.86
2023-03-13T20:15:42.345Z,13.86
2023-03-13T20:19:04.781Z,13.86
2023-03-13T20:22:27.626Z,13.87
2023-03-13T20:25:49.486Z,13.88
2023-03-13T20:29:11.306Z,13.86
2023-03-13T20:32:33.367Z,13.85
2023-03-13T20:36:00.318Z,13.86
2023-03-13T20:39:24.012Z,13.87
2023-03-13T20:42:45.952Z,13.89
2023-03-13T20:46:10.402Z,13.90
2023-03-13T20:49:32.274Z,13.90
2023-03-13T20:52:55.588Z,13.90
2023-03-13T20:56:18.014Z,13.91
2023-03-13T20:59:41.298Z,13.91
2023-03-13T21:03:03.015Z,13.92
2023-03-13T21:06:24.725Z,13.92
2023-03-13T21:09:46.371Z,13.93
2023-03-13T21:13:09.478Z,13.94
2023-03-13T21:16:31.726Z,13.95
2023-03-13T21:19:53.668Z,13.95
2023-03-13T21:23:16.286Z,13.94
2023-03-13T21:26:38.053Z,13.94
2023-03-13T21:30:00.544Z,13.93
2023-03-13T21:33:22.444Z,13.93
2023-03-13T21:36:44.113Z,13.93
2023-03-13T21:40:06.772Z,13.91
2023-03-13T21:43:29.202Z,13.90
2023-03-13T21:46:51.810Z,13.90
2023-03-13T21:50:13.931Z,13.89
2023-03-13T21:53:36.315Z,13.88
2023-03-13T21:56:58.277Z,13.88
2023-03-13T22:00:20.284Z,13.87
2023-03-13T22:03:42.723Z,13.83
2023-03-13T22:07:04.995Z,13.81
2023-03-13T22:10:26.716Z,13.79
2023-03-13T22:13:48.418Z,13.80
2023-03-13T22:17:16.818Z,13.81
2023-03-13T22:20:38.552Z,13.83
2023-03-13T22:24:00.239Z,13.82
2023-03-13T22:27:24.157Z,13.82
2023-03-13T22:30:46.132Z,13.83
2023-03-13T22:34:08.534Z,13.78
2023-03-13T22:37:30.652Z,13.77
2023-03-13T22:41:04.754Z,13.77
2023-03-13T22:44:26.627Z,13.77
2023-03-13T22:47:48.535Z,13.77
2023-03-13T22:51:12.665Z,13.78
2023-03-13T22:54:34.473Z,13.80
2023-03-13T22:57:56.205Z,13.79
2023-03-13T23:01:19.085Z,13.80
2023-03-13T23:04:40.773Z,13.80
2023-03-13T23:08:03.038Z,13.80
2023-03-13T23:11:24.804Z,13.81
2023-03-13T23:14:47.155Z,13.79
2023-03-13T23:18:09.328Z,13.78
2023-03-13T23:21:31.049Z,13.75
2023-03-13T23:24:54.072Z,13.72
2023-03-13T23:28:19.497Z,13.70
2023-03-13T23:31:41.242Z,13.71
2023-03-13T23:35:03.557Z,13.73
2023-03-13T23:38:25.444Z,13.73
2023-03-13T23:41:47.393Z,13.74
2023-03-13T23:45:09.415Z,13.74
2023-03-13T23:48:31.613Z,13.73
2023-03-13T23:51:53.263Z,13.72
2023-03-13T23:55:15.808Z,13.66
2023-03-13T23:58:37.687Z,13.59
